Villa Taina, Puerto Rico
Current Conditions -  °F | °C
As of 9:45 AM on Monday 26 Jan 2015 (Local Time) from TJBQ Reporting Station
Clear Clear  
Wind Chill: 77°   Ceiling: Unl
Heat Index: 79°   Visibility: 10mi
Dew Point: 68°   Wind: 6mph
Humidity: 74%   Direction: 90°E
Pressure: 30.04"   Gusts: NA
Location:  18.0265°N, 67.1727°W
Report Text: TJBQ 261345Z 09005KT 10SM SKC 25/20 A3004 RMK RWY 8 ATIS F
Loading
Personal Weather Stations






























Interactive Weather Map New forecast layout! Learn more

10-Day Weather Forecast

Advertisements
Track Severe Weather on mobile